sensor_id;sensor_type;location;lat;lon;timestamp;P1;durP1;ratioP1;P2;durP2;ratioP2
67227;SDS011;54139;42.616;23.748;2023-05-10T00:01:30;7.00;;;6.50;;
67227;SDS011;54139;42.616;23.748;2023-05-10T00:03:57;6.20;;;5.70;;
67227;SDS011;54139;42.616;23.748;2023-05-10T00:06:22;6.47;;;6.07;;
67227;SDS011;54139;42.616;23.748;2023-05-10T00:08:47;7.07;;;6.57;;
67227;SDS011;54139;42.616;23.748;2023-05-10T00:11:12;6.38;;;5.93;;
67227;SDS011;54139;42.616;23.748;2023-05-10T00:13:38;8.90;;;8.20;;
67227;SDS011;54139;42.616;23.748;2023-05-10T00:16:04;7.10;;;6.60;;
67227;SDS011;54139;42.616;23.748;2023-05-10T00:18:29;9.32;;;8.52;;
67227;SDS011;54139;42.616;23.748;2023-05-10T00:20:55;7.00;;;6.50;;
67227;SDS011;54139;42.616;23.748;2023-05-10T00:23:20;8.25;;;7.75;;
67227;SDS011;54139;42.616;23.748;2023-05-10T00:25:45;9.10;;;8.25;;
67227;SDS011;54139;42.616;23.748;2023-05-10T00:28:11;10.52;;;9.77;;
67227;SDS011;54139;42.616;23.748;2023-05-10T00:30:36;8.50;;;7.70;;
67227;SDS011;54139;42.616;23.748;2023-05-10T00:33:01;8.45;;;7.85;;
67227;SDS011;54139;42.616;23.748;2023-05-10T00:35:26;7.68;;;7.18;;
67227;SDS011;54139;42.616;23.748;2023-05-10T00:37:52;7.57;;;7.07;;
67227;SDS011;54139;42.616;23.748;2023-05-10T00:40:17;5.90;;;5.50;;
67227;SDS011;54139;42.616;23.748;2023-05-10T00:42:42;7.50;;;6.95;;
67227;SDS011;54139;42.616;23.748;2023-05-10T00:45:08;7.68;;;7.18;;
67227;SDS011;54139;42.616;23.748;2023-05-10T00:47:33;8.65;;;7.95;;
67227;SDS011;54139;42.616;23.748;2023-05-10T00:49:59;8.65;;;7.95;;
67227;SDS011;54139;42.616;23.748;2023-05-10T00:52:26;7.82;;;7.32;;
67227;SDS011;54139;42.616;23.748;2023-05-10T00:54:52;7.63;;;7.13;;
67227;SDS011;54139;42.616;23.748;2023-05-10T00:57:19;7.70;;;7.10;;
67227;SDS011;54139;42.616;23.748;2023-05-10T00:59:56;7.40;;;6.90;;
67227;SDS011;54139;42.616;23.748;2023-05-10T01:02:28;7.43;;;6.93;;
67227;SDS011;54139;42.616;23.748;2023-05-10T01:04:54;8.15;;;7.43;;
67227;SDS011;54139;42.616;23.748;2023-05-10T01:07:21;6.78;;;6.28;;
67227;SDS011;54139;42.616;23.748;2023-05-10T01:09:46;6.38;;;5.93;;
67227;SDS011;54139;42.616;23.748;2023-05-10T01:12:14;7.43;;;6.80;;
67227;SDS011;54139;42.616;23.748;2023-05-10T01:14:43;8.57;;;7.78;;
67227;SDS011;54139;42.616;23.748;2023-05-10T01:17:08;7.72;;;7.22;;
67227;SDS011;54139;42.616;23.748;2023-05-10T01:19:34;8.07;;;7.47;;
67227;SDS011;54139;42.616;23.748;2023-05-10T01:35:30;7.30;;;6.80;;
67227;SDS011;54139;42.616;23.748;2023-05-10T01:40:38;8.55;;;7.85;;
67227;SDS011;54139;42.616;23.748;2023-05-10T01:43:22;8.88;;;8.18;;
67227;SDS011;54139;42.616;23.748;2023-05-10T01:51:13;6.57;;;6.10;;
67227;SDS011;54139;42.616;23.748;2023-05-10T01:53:46;5.30;;;4.90;;
67227;SDS011;54139;42.616;23.748;2023-05-10T01:58:56;5.25;;;4.75;;
67227;SDS011;54139;42.616;23.748;2023-05-10T02:01:28;6.32;;;5.93;;
67227;SDS011;54139;42.616;23.748;2023-05-10T02:03:54;6.43;;;5.93;;
67227;SDS011;54139;42.616;23.748;2023-05-10T02:18:21;6.38;;;4.70;;
67227;SDS011;54139;42.616;23.748;2023-05-10T02:21:00;5.35;;;4.85;;
67227;SDS011;54139;42.616;23.748;2023-05-10T02:26:36;7.43;;;4.60;;
67227;SDS011;54139;42.616;23.748;2023-05-10T03:40:34;6.10;;;5.50;;
67227;SDS011;54139;42.616;23.748;2023-05-10T03:43:15;7.07;;;4.82;;
67227;SDS011;54139;42.616;23.748;2023-05-10T03:45:40;6.15;;;5.43;;
67227;SDS011;54139;42.616;23.748;2023-05-10T03:48:07;9.27;;;5.93;;
67227;SDS011;54139;42.616;23.748;2023-05-10T03:50:35;6.75;;;6.15;;
67227;SDS011;54139;42.616;23.748;2023-05-10T03:53:15;6.53;;;5.70;;
67227;SDS011;54139;42.616;23.748;2023-05-10T04:01:27;6.97;;;6.47;;
67227;SDS011;54139;42.616;23.748;2023-05-10T07:01:10;5.28;;;2.83;;
67227;SDS011;54139;42.616;23.748;2023-05-10T07:06:11;3.97;;;3.60;;
67227;SDS011;54139;42.616;23.748;2023-05-10T08:20:39;6.93;;;5.07;;
67227;SDS011;54139;42.616;23.748;2023-05-10T08:23:30;5.22;;;4.82;;
67227;SDS011;54139;42.616;23.748;2023-05-10T08:26:03;6.05;;;4.28;;
67227;SDS011;54139;42.616;23.748;2023-05-10T08:31:04;5.10;;;4.60;;
67227;SDS011;54139;42.616;23.748;2023-05-10T08:33:51;4.28;;;3.90;;
67227;SDS011;54139;42.616;23.748;2023-05-10T08:36:18;4.80;;;4.40;;
67227;SDS011;54139;42.616;23.748;2023-05-10T08:41:23;7.75;;;4.97;;
67227;SDS011;54139;42.616;23.748;2023-05-10T08:43:53;5.38;;;4.88;;
67227;SDS011;54139;42.616;23.748;2023-05-10T08:46:28;4.68;;;4.28;;
67227;SDS011;54139;42.616;23.748;2023-05-10T08:48:56;5.35;;;4.70;;
67227;SDS011;54139;42.616;23.748;2023-05-10T08:51:25;5.00;;;4.55;;
67227;SDS011;54139;42.616;23.748;2023-05-10T08:53:52;5.18;;;4.22;;
67227;SDS011;54139;42.616;23.748;2023-05-10T08:56:24;5.35;;;4.30;;
67227;SDS011;54139;42.616;23.748;2023-05-10T08:58:50;4.10;;;3.80;;
67227;SDS011;54139;42.616;23.748;2023-05-10T09:01:30;5.43;;;4.10;;
67227;SDS011;54139;42.616;23.748;2023-05-10T09:04:12;4.22;;;3.83;;
67227;SDS011;54139;42.616;23.748;2023-05-10T09:23:57;3.63;;;3.33;;
67227;SDS011;54139;42.616;23.748;2023-05-10T09:26:28;3.63;;;3.33;;
67227;SDS011;54139;42.616;23.748;2023-05-10T09:29:01;4.10;;;3.72;;
67227;SDS011;54139;42.616;23.748;2023-05-10T09:32:05;5.25;;;3.85;;
67227;SDS011;54139;42.616;23.748;2023-05-10T09:40:54;3.80;;;3.50;;
67227;SDS011;54139;42.616;23.748;2023-05-10T09:43:24;4.55;;;3.28;;
67227;SDS011;54139;42.616;23.748;2023-05-10T09:46:08;6.07;;;3.63;;
67227;SDS011;54139;42.616;23.748;2023-05-10T09:48:45;5.88;;;3.85;;
67227;SDS011;54139;42.616;23.748;2023-05-10T09:51:23;3.30;;;3.10;;
67227;SDS011;54139;42.616;23.748;2023-05-10T09:56:34;3.30;;;3.00;;
67227;SDS011;54139;42.616;23.748;2023-05-10T10:01:50;5.30;;;3.13;;
67227;SDS011;54139;42.616;23.748;2023-05-10T10:04:29;4.95;;;3.30;;
67227;SDS011;54139;42.616;23.748;2023-05-10T10:09:58;4.22;;;3.58;;
67227;SDS011;54139;42.616;23.748;2023-05-10T10:12:30;4.47;;;3.05;;
67227;SDS011;54139;42.616;23.748;2023-05-10T10:14:55;5.10;;;3.08;;
67227;SDS011;54139;42.616;23.748;2023-05-10T10:17:23;4.97;;;2.63;;
67227;SDS011;54139;42.616;23.748;2023-05-10T10:19:54;7.20;;;2.63;;
67227;SDS011;54139;42.616;23.748;2023-05-10T10:22:20;4.15;;;2.60;;
67227;SDS011;54139;42.616;23.748;2023-05-10T10:28:08;3.67;;;2.90;;
67227;SDS011;54139;42.616;23.748;2023-05-10T10:35:51;3.35;;;2.67;;
67227;SDS011;54139;42.616;23.748;2023-05-10T10:38:21;3.13;;;2.70;;
67227;SDS011;54139;42.616;23.748;2023-05-10T10:49:37;3.25;;;2.67;;
67227;SDS011;54139;42.616;23.748;2023-05-10T10:55:33;3.40;;;2.92;;
67227;SDS011;54139;42.616;23.748;2023-05-10T11:13:05;3.50;;;3.20;;
67227;SDS011;54139;42.616;23.748;2023-05-10T11:16:23;3.15;;;2.72;;
67227;SDS011;54139;42.616;23.748;2023-05-10T11:19:04;3.55;;;3.25;;
67227;SDS011;54139;42.616;23.748;2023-05-10T11:22:18;3.10;;;2.90;;
67227;SDS011;54139;42.616;23.748;2023-05-10T11:25:00;4.38;;;3.03;;
67227;SDS011;54139;42.616;23.748;2023-05-10T11:39:56;3.85;;;3.50;;
67227;SDS011;54139;42.616;23.748;2023-05-10T11:42:29;4.93;;;3.20;;
67227;SDS011;54139;42.616;23.748;2023-05-10T11:45:00;3.47;;;3.17;;
67227;SDS011;54139;42.616;23.748;2023-05-10T11:47:55;6.20;;;3.00;;
67227;SDS011;54139;42.616;23.748;2023-05-10T11:50:48;2.90;;;2.55;;
67227;SDS011;54139;42.616;23.748;2023-05-10T11:53:19;3.97;;;2.90;;
67227;SDS011;54139;42.616;23.748;2023-05-10T11:55:48;6.75;;;3.53;;
67227;SDS011;54139;42.616;23.748;2023-05-10T11:58:13;3.30;;;3.00;;
67227;SDS011;54139;42.616;23.748;2023-05-10T12:03:34;3.85;;;2.75;;
67227;SDS011;54139;42.616;23.748;2023-05-10T12:06:12;4.38;;;3.08;;
67227;SDS011;54139;42.616;23.748;2023-05-10T12:11:55;2.97;;;2.45;;
67227;SDS011;54139;42.616;23.748;2023-05-10T12:14:42;5.32;;;2.72;;
67227;SDS011;54139;42.616;23.748;2023-05-10T12:22:58;3.90;;;3.13;;
67227;SDS011;54139;42.616;23.748;2023-05-10T12:33:26;7.93;;;3.55;;
67227;SDS011;54139;42.616;23.748;2023-05-10T12:35:54;4.28;;;3.30;;
67227;SDS011;54139;42.616;23.748;2023-05-10T12:41:20;3.42;;;3.13;;
67227;SDS011;54139;42.616;23.748;2023-05-10T12:43:49;4.45;;;3.03;;
67227;SDS011;54139;42.616;23.748;2023-05-10T12:46:26;3.85;;;3.55;;
67227;SDS011;54139;42.616;23.748;2023-05-10T12:48:52;3.47;;;3.17;;
67227;SDS011;54139;42.616;23.748;2023-05-10T12:51:19;3.33;;;3.10;;
67227;SDS011;54139;42.616;23.748;2023-05-10T12:53:49;4.43;;;3.53;;
67227;SDS011;54139;42.616;23.748;2023-05-10T12:56:15;3.50;;;3.20;;
67227;SDS011;54139;42.616;23.748;2023-05-10T12:59:04;3.67;;;3.30;;
67227;SDS011;54139;42.616;23.748;2023-05-10T13:04:19;3.60;;;3.30;;
67227;SDS011;54139;42.616;23.748;2023-05-10T13:06:44;4.15;;;2.80;;
67227;SDS011;54139;42.616;23.748;2023-05-10T13:09:09;4.10;;;3.00;;
67227;SDS011;54139;42.616;23.748;2023-05-10T13:11:37;5.10;;;3.30;;
67227;SDS011;54139;42.616;23.748;2023-05-10T13:14:07;5.72;;;3.53;;
67227;SDS011;54139;42.616;23.748;2023-05-10T13:16:33;3.67;;;3.30;;
67227;SDS011;54139;42.616;23.748;2023-05-10T13:18:59;7.07;;;3.15;;
67227;SDS011;54139;42.616;23.748;2023-05-10T13:21:24;5.18;;;3.67;;
67227;SDS011;54139;42.616;23.748;2023-05-10T13:23:50;5.20;;;3.65;;
67227;SDS011;54139;42.616;23.748;2023-05-10T13:26:17;5.55;;;3.38;;
67227;SDS011;54139;42.616;23.748;2023-05-10T13:28:44;4.47;;;4.10;;
67227;SDS011;54139;42.616;23.748;2023-05-10T13:31:11;4.50;;;4.07;;
67227;SDS011;54139;42.616;23.748;2023-05-10T13:33:37;4.63;;;3.80;;
67227;SDS011;54139;42.616;23.748;2023-05-10T13:45:07;5.70;;;3.33;;
67227;SDS011;54139;42.616;23.748;2023-05-10T13:47:53;3.70;;;3.40;;
67227;SDS011;54139;42.616;23.748;2023-05-10T13:50:18;4.28;;;3.55;;
67227;SDS011;54139;42.616;23.748;2023-05-10T13:52:44;5.85;;;3.92;;
67227;SDS011;54139;42.616;23.748;2023-05-10T14:04:19;4.55;;;3.22;;
67227;SDS011;54139;42.616;23.748;2023-05-10T14:06:59;7.53;;;3.83;;
67227;SDS011;54139;42.616;23.748;2023-05-10T14:09:27;4.32;;;3.92;;
67227;SDS011;54139;42.616;23.748;2023-05-10T14:11:56;5.32;;;4.20;;
67227;SDS011;54139;42.616;23.748;2023-05-10T14:14:21;7.30;;;3.60;;
67227;SDS011;54139;42.616;23.748;2023-05-10T14:16:52;5.60;;;3.85;;
67227;SDS011;54139;42.616;23.748;2023-05-10T14:28:32;3.83;;;3.40;;
67227;SDS011;54139;42.616;23.748;2023-05-10T14:31:01;4.07;;;3.67;;
67227;SDS011;54139;42.616;23.748;2023-05-10T14:33:35;4.38;;;3.60;;
67227;SDS011;54139;42.616;23.748;2023-05-10T14:36:11;6.00;;;3.90;;
67227;SDS011;54139;42.616;23.748;2023-05-10T14:38:39;4.05;;;3.38;;
67227;SDS011;54139;42.616;23.748;2023-05-10T14:41:11;3.72;;;3.30;;
67227;SDS011;54139;42.616;23.748;2023-05-10T14:43:39;5.13;;;3.65;;
67227;SDS011;54139;42.616;23.748;2023-05-10T14:46:05;4.57;;;3.53;;
67227;SDS011;54139;42.616;23.748;2023-05-10T14:48:33;3.67;;;3.38;;
67227;SDS011;54139;42.616;23.748;2023-05-10T14:50:59;11.45;;;7.85;;
67227;SDS011;54139;42.616;23.748;2023-05-10T14:53:36;4.82;;;3.80;;
67227;SDS011;54139;42.616;23.748;2023-05-10T14:56:02;4.10;;;3.50;;
67227;SDS011;54139;42.616;23.748;2023-05-10T14:58:29;5.45;;;3.80;;
67227;SDS011;54139;42.616;23.748;2023-05-10T15:00:56;5.40;;;3.35;;
67227;SDS011;54139;42.616;23.748;2023-05-10T15:03:22;4.32;;;3.83;;
67227;SDS011;54139;42.616;23.748;2023-05-10T15:05:47;3.88;;;3.55;;
67227;SDS011;54139;42.616;23.748;2023-05-10T15:08:12;4.60;;;4.20;;
67227;SDS011;54139;42.616;23.748;2023-05-10T15:13:33;4.57;;;4.25;;
67227;SDS011;54139;42.616;23.748;2023-05-10T15:15:59;4.65;;;4.18;;
67227;SDS011;54139;42.616;23.748;2023-05-10T15:18:27;4.60;;;4.30;;
67227;SDS011;54139;42.616;23.748;2023-05-10T15:24:01;5.35;;;4.68;;
67227;SDS011;54139;42.616;23.748;2023-05-10T15:26:30;5.00;;;4.43;;
67227;SDS011;54139;42.616;23.748;2023-05-10T15:29:03;6.57;;;5.10;;
67227;SDS011;54139;42.616;23.748;2023-05-10T15:37:31;5.95;;;5.45;;
67227;SDS011;54139;42.616;23.748;2023-05-10T15:39:56;6.65;;;5.75;;
67227;SDS011;54139;42.616;23.748;2023-05-10T15:42:31;7.68;;;5.70;;
67227;SDS011;54139;42.616;23.748;2023-05-10T15:44:58;5.73;;;5.33;;
67227;SDS011;54139;42.616;23.748;2023-05-10T15:47:29;5.30;;;4.80;;
67227;SDS011;54139;42.616;23.748;2023-05-10T15:50:11;6.03;;;5.43;;
67227;SDS011;54139;42.616;23.748;2023-05-10T15:53:16;6.15;;;5.65;;
67227;SDS011;54139;42.616;23.748;2023-05-10T15:56:00;5.85;;;5.35;;
67227;SDS011;54139;42.616;23.748;2023-05-10T15:58:25;7.57;;;5.65;;
67227;SDS011;54139;42.616;23.748;2023-05-10T16:00:51;5.45;;;4.82;;
67227;SDS011;54139;42.616;23.748;2023-05-10T16:03:17;8.32;;;5.60;;
67227;SDS011;54139;42.616;23.748;2023-05-10T16:05:44;5.90;;;5.40;;
67227;SDS011;54139;42.616;23.748;2023-05-10T16:08:09;7.30;;;5.38;;
67227;SDS011;54139;42.616;23.748;2023-05-10T16:10:35;6.75;;;6.10;;
67227;SDS011;54139;42.616;23.748;2023-05-10T16:13:00;6.57;;;5.97;;
67227;SDS011;54139;42.616;23.748;2023-05-10T16:15:38;6.68;;;6.07;;
67227;SDS011;54139;42.616;23.748;2023-05-10T16:18:04;7.72;;;5.93;;
67227;SDS011;54139;42.616;23.748;2023-05-10T16:20:30;6.10;;;5.60;;
67227;SDS011;54139;42.616;23.748;2023-05-10T16:22:56;6.28;;;5.78;;
67227;SDS011;54139;42.616;23.748;2023-05-10T16:25:33;6.70;;;5.07;;
67227;SDS011;54139;42.616;23.748;2023-05-10T16:28:01;7.72;;;5.93;;
67227;SDS011;54139;42.616;23.748;2023-05-10T16:30:28;6.38;;;5.85;;
67227;SDS011;54139;42.616;23.748;2023-05-10T16:32:58;6.47;;;5.97;;
67227;SDS011;54139;42.616;23.748;2023-05-10T16:35:42;8.70;;;5.45;;
67227;SDS011;54139;42.616;23.748;2023-05-10T16:38:09;10.45;;;5.75;;
67227;SDS011;54139;42.616;23.748;2023-05-10T16:40:35;5.60;;;5.10;;
67227;SDS011;54139;42.616;23.748;2023-05-10T16:43:00;5.47;;;5.05;;
67227;SDS011;54139;42.616;23.748;2023-05-10T16:45:25;6.50;;;5.90;;
67227;SDS011;54139;42.616;23.748;2023-05-10T16:47:51;6.53;;;5.93;;
67227;SDS011;54139;42.616;23.748;2023-05-10T16:50:17;6.25;;;5.75;;
67227;SDS011;54139;42.616;23.748;2023-05-10T16:52:47;7.28;;;5.93;;
67227;SDS011;54139;42.616;23.748;2023-05-10T16:58:03;6.85;;;6.15;;
67227;SDS011;54139;42.616;23.748;2023-05-10T17:00:28;6.75;;;6.05;;
67227;SDS011;54139;42.616;23.748;2023-05-10T17:03:12;7.10;;;6.22;;
67227;SDS011;54139;42.616;23.748;2023-05-10T17:05:43;6.82;;;6.20;;
67227;SDS011;54139;42.616;23.748;2023-05-10T17:08:12;6.95;;;6.25;;
67227;SDS011;54139;42.616;23.748;2023-05-10T17:10:46;8.48;;;6.32;;
67227;SDS011;54139;42.616;23.748;2023-05-10T17:13:19;7.43;;;6.20;;
67227;SDS011;54139;42.616;23.748;2023-05-10T17:18:37;6.57;;;5.93;;
67227;SDS011;54139;42.616;23.748;2023-05-10T17:21:09;6.60;;;6.00;;
67227;SDS011;54139;42.616;23.748;2023-05-10T17:23:35;6.47;;;5.88;;
67227;SDS011;54139;42.616;23.748;2023-05-10T17:26:02;5.82;;;5.40;;
67227;SDS011;54139;42.616;23.748;2023-05-10T17:28:29;6.60;;;6.03;;
67227;SDS011;54139;42.616;23.748;2023-05-10T17:31:00;5.68;;;5.28;;
67227;SDS011;54139;42.616;23.748;2023-05-10T17:33:26;7.20;;;6.60;;
67227;SDS011;54139;42.616;23.748;2023-05-10T17:35:52;6.40;;;5.97;;
67227;SDS011;54139;42.616;23.748;2023-05-10T17:38:17;6.70;;;6.20;;
67227;SDS011;54139;42.616;23.748;2023-05-10T17:40:46;6.65;;;6.15;;
67227;SDS011;54139;42.616;23.748;2023-05-10T17:43:15;6.55;;;5.95;;
67227;SDS011;54139;42.616;23.748;2023-05-10T17:46:14;7.65;;;6.78;;
67227;SDS011;54139;42.616;23.748;2023-05-10T17:48:43;7.18;;;6.57;;
67227;SDS011;54139;42.616;23.748;2023-05-10T17:51:13;8.35;;;6.80;;
67227;SDS011;54139;42.616;23.748;2023-05-10T17:53:42;8.38;;;7.00;;
67227;SDS011;54139;42.616;23.748;2023-05-10T17:56:09;7.15;;;6.55;;
67227;SDS011;54139;42.616;23.748;2023-05-10T17:58:35;7.60;;;7.00;;
67227;SDS011;54139;42.616;23.748;2023-05-10T18:01:09;7.22;;;6.72;;
67227;SDS011;54139;42.616;23.748;2023-05-10T18:03:35;10.68;;;8.05;;
67227;SDS011;54139;42.616;23.748;2023-05-10T18:06:06;7.85;;;7.15;;
67227;SDS011;54139;42.616;23.748;2023-05-10T18:08:31;6.85;;;6.25;;
67227;SDS011;54139;42.616;23.748;2023-05-10T18:11:16;7.65;;;6.97;;
67227;SDS011;54139;42.616;23.748;2023-05-10T18:13:41;9.02;;;7.45;;
67227;SDS011;54139;42.616;23.748;2023-05-10T18:16:08;8.50;;;7.18;;
67227;SDS011;54139;42.616;23.748;2023-05-10T18:18:52;8.32;;;7.72;;
67227;SDS011;54139;42.616;23.748;2023-05-10T18:21:24;8.30;;;7.55;;
67227;SDS011;54139;42.616;23.748;2023-05-10T18:23:52;8.15;;;7.55;;
67227;SDS011;54139;42.616;23.748;2023-05-10T18:29:14;7.97;;;7.28;;
67227;SDS011;54139;42.616;23.748;2023-05-10T18:31:46;9.45;;;8.65;;
67227;SDS011;54139;42.616;23.748;2023-05-10T18:34:11;11.85;;;8.07;;
67227;SDS011;54139;42.616;23.748;2023-05-10T18:36:43;8.95;;;8.20;;
67227;SDS011;54139;42.616;23.748;2023-05-10T18:39:14;8.65;;;7.95;;
67227;SDS011;54139;42.616;23.748;2023-05-10T18:42:18;8.77;;;8.05;;
67227;SDS011;54139;42.616;23.748;2023-05-10T18:44:45;9.82;;;8.65;;
67227;SDS011;54139;42.616;23.748;2023-05-10T18:47:11;8.50;;;7.75;;
67227;SDS011;54139;42.616;23.748;2023-05-10T18:49:41;9.73;;;8.93;;
67227;SDS011;54139;42.616;23.748;2023-05-10T18:52:06;9.75;;;8.85;;
67227;SDS011;54139;42.616;23.748;2023-05-10T18:54:35;11.05;;;10.00;;
67227;SDS011;54139;42.616;23.748;2023-05-10T18:57:00;9.73;;;8.83;;
67227;SDS011;54139;42.616;23.748;2023-05-10T18:59:26;11.20;;;9.70;;
67227;SDS011;54139;42.616;23.748;2023-05-10T19:01:52;10.35;;;9.55;;
67227;SDS011;54139;42.616;23.748;2023-05-10T19:04:19;10.75;;;9.85;;
67227;SDS011;54139;42.616;23.748;2023-05-10T19:06:46;9.80;;;9.07;;
67227;SDS011;54139;42.616;23.748;2023-05-10T19:09:11;13.50;;;10.10;;
67227;SDS011;54139;42.616;23.748;2023-05-10T19:11:39;11.40;;;9.57;;
67227;SDS011;54139;42.616;23.748;2023-05-10T19:14:09;11.60;;;10.50;;
67227;SDS011;54139;42.616;23.748;2023-05-10T19:16:42;10.45;;;9.55;;
67227;SDS011;54139;42.616;23.748;2023-05-10T19:19:37;10.50;;;9.48;;
67227;SDS011;54139;42.616;23.748;2023-05-10T19:22:06;11.95;;;10.85;;
67227;SDS011;54139;42.616;23.748;2023-05-10T19:27:21;10.60;;;9.50;;
67227;SDS011;54139;42.616;23.748;2023-05-10T19:30:11;10.50;;;9.68;;
67227;SDS011;54139;42.616;23.748;2023-05-10T19:35:49;12.63;;;11.52;;
67227;SDS011;54139;42.616;23.748;2023-05-10T19:38:24;11.85;;;10.85;;
67227;SDS011;54139;42.616;23.748;2023-05-10T19:40:59;11.00;;;10.07;;
67227;SDS011;54139;42.616;23.748;2023-05-10T19:46:13;10.52;;;9.48;;
67227;SDS011;54139;42.616;23.748;2023-05-10T19:48:39;12.52;;;11.32;;
67227;SDS011;54139;42.616;23.748;2023-05-10T19:51:06;11.63;;;10.73;;
67227;SDS011;54139;42.616;23.748;2023-05-10T19:53:31;11.80;;;10.77;;
67227;SDS011;54139;42.616;23.748;2023-05-10T19:56:06;11.77;;;10.60;;
67227;SDS011;54139;42.616;23.748;2023-05-10T19:58:32;11.45;;;10.52;;
67227;SDS011;54139;42.616;23.748;2023-05-10T20:01:07;11.45;;;10.45;;
67227;SDS011;54139;42.616;23.748;2023-05-10T20:03:41;13.23;;;11.63;;
67227;SDS011;54139;42.616;23.748;2023-05-10T20:08:53;11.38;;;10.30;;
67227;SDS011;54139;42.616;23.748;2023-05-10T20:14:07;14.40;;;11.43;;
67227;SDS011;54139;42.616;23.748;2023-05-10T20:16:41;11.77;;;10.77;;
67227;SDS011;54139;42.616;23.748;2023-05-10T20:19:09;11.18;;;10.10;;
67227;SDS011;54139;42.616;23.748;2023-05-10T20:24:48;11.73;;;10.50;;
67227;SDS011;54139;42.616;23.748;2023-05-10T20:27:14;12.02;;;10.75;;
67227;SDS011;54139;42.616;23.748;2023-05-10T20:29:46;12.00;;;10.90;;
67227;SDS011;54139;42.616;23.748;2023-05-10T20:32:25;13.05;;;12.05;;
67227;SDS011;54139;42.616;23.748;2023-05-10T20:34:57;11.88;;;10.80;;
67227;SDS011;54139;42.616;23.748;2023-05-10T20:40:30;10.95;;;10.05;;
67227;SDS011;54139;42.616;23.748;2023-05-10T20:46:42;11.25;;;9.85;;
67227;SDS011;54139;42.616;23.748;2023-05-10T20:49:46;10.20;;;9.35;;
67227;SDS011;54139;42.616;23.748;2023-05-10T20:52:20;13.48;;;12.27;;
67227;SDS011;54139;42.616;23.748;2023-05-10T20:54:52;12.40;;;11.30;;
67227;SDS011;54139;42.616;23.748;2023-05-10T20:57:18;12.98;;;11.88;;
67227;SDS011;54139;42.616;23.748;2023-05-10T20:59:44;13.32;;;12.13;;
67227;SDS011;54139;42.616;23.748;2023-05-10T21:02:09;12.57;;;11.50;;
67227;SDS011;54139;42.616;23.748;2023-05-10T21:04:34;12.57;;;11.57;;
67227;SDS011;54139;42.616;23.748;2023-05-10T21:07:02;13.05;;;12.05;;
67227;SDS011;54139;42.616;23.748;2023-05-10T21:09:27;13.65;;;12.13;;
67227;SDS011;54139;42.616;23.748;2023-05-10T21:11:53;13.45;;;12.05;;
67227;SDS011;54139;42.616;23.748;2023-05-10T21:14:18;13.55;;;12.57;;
67227;SDS011;54139;42.616;23.748;2023-05-10T21:16:44;13.43;;;12.23;;
67227;SDS011;54139;42.616;23.748;2023-05-10T21:19:10;12.10;;;11.10;;
67227;SDS011;54139;42.616;23.748;2023-05-10T21:21:35;10.90;;;10.02;;
67227;SDS011;54139;42.616;23.748;2023-05-10T21:24:00;12.60;;;11.40;;
67227;SDS011;54139;42.616;23.748;2023-05-10T21:26:27;11.35;;;10.38;;
67227;SDS011;54139;42.616;23.748;2023-05-10T21:29:19;11.05;;;10.07;;
67227;SDS011;54139;42.616;23.748;2023-05-10T21:31:44;10.93;;;10.10;;
67227;SDS011;54139;42.616;23.748;2023-05-10T21:34:10;10.75;;;9.68;;
67227;SDS011;54139;42.616;23.748;2023-05-10T21:36:35;9.10;;;8.35;;
67227;SDS011;54139;42.616;23.748;2023-05-10T21:39:04;7.13;;;6.43;;
67227;SDS011;54139;42.616;23.748;2023-05-10T21:41:29;5.53;;;5.07;;
67227;SDS011;54139;42.616;23.748;2023-05-10T21:43:54;5.18;;;4.88;;
67227;SDS011;54139;42.616;23.748;2023-05-10T21:46:26;4.90;;;4.45;;
67227;SDS011;54139;42.616;23.748;2023-05-10T21:48:52;4.95;;;4.57;;
67227;SDS011;54139;42.616;23.748;2023-05-10T21:51:18;4.95;;;4.45;;
67227;SDS011;54139;42.616;23.748;2023-05-10T21:53:43;5.30;;;4.80;;
67227;SDS011;54139;42.616;23.748;2023-05-10T21:56:08;4.30;;;4.00;;
67227;SDS011;54139;42.616;23.748;2023-05-10T21:58:34;7.70;;;4.85;;
67227;SDS011;54139;42.616;23.748;2023-05-10T22:00:59;4.78;;;4.32;;
67227;SDS011;54139;42.616;23.748;2023-05-10T22:03:25;4.88;;;4.47;;
67227;SDS011;54139;42.616;23.748;2023-05-10T22:05:50;4.80;;;3.95;;
67227;SDS011;54139;42.616;23.748;2023-05-10T22:08:16;5.57;;;4.35;;
67227;SDS011;54139;42.616;23.748;2023-05-10T22:10:46;4.93;;;4.47;;
67227;SDS011;54139;42.616;23.748;2023-05-10T22:13:13;4.78;;;4.25;;
67227;SDS011;54139;42.616;23.748;2023-05-10T22:15:53;3.85;;;3.55;;
67227;SDS011;54139;42.616;23.748;2023-05-10T22:18:27;4.25;;;3.92;;
67227;SDS011;54139;42.616;23.748;2023-05-10T22:20:52;4.78;;;3.72;;
67227;SDS011;54139;42.616;23.748;2023-05-10T22:23:17;4.78;;;4.30;;
67227;SDS011;54139;42.616;23.748;2023-05-10T22:25:42;3.78;;;3.47;;
67227;SDS011;54139;42.616;23.748;2023-05-10T22:28:08;5.03;;;3.80;;
67227;SDS011;54139;42.616;23.748;2023-05-10T22:30:34;4.70;;;4.30;;
67227;SDS011;54139;42.616;23.748;2023-05-10T22:32:59;4.30;;;4.00;;
67227;SDS011;54139;42.616;23.748;2023-05-10T22:35:24;4.68;;;4.28;;
67227;SDS011;54139;42.616;23.748;2023-05-10T22:37:50;6.00;;;4.53;;
67227;SDS011;54139;42.616;23.748;2023-05-10T22:40:15;4.40;;;4.10;;
67227;SDS011;54139;42.616;23.748;2023-05-10T22:42:41;4.40;;;4.03;;
67227;SDS011;54139;42.616;23.748;2023-05-10T22:45:06;4.22;;;3.78;;
67227;SDS011;54139;42.616;23.748;2023-05-10T22:47:32;4.43;;;4.13;;
67227;SDS011;54139;42.616;23.748;2023-05-10T22:49:57;4.78;;;4.38;;
67227;SDS011;54139;42.616;23.748;2023-05-10T22:52:23;4.25;;;3.85;;
67227;SDS011;54139;42.616;23.748;2023-05-10T22:54:48;4.90;;;4.50;;
67227;SDS011;54139;42.616;23.748;2023-05-10T22:57:13;5.13;;;4.70;;
67227;SDS011;54139;42.616;23.748;2023-05-10T22:59:39;5.25;;;4.75;;
67227;SDS011;54139;42.616;23.748;2023-05-10T23:02:04;8.05;;;4.30;;
67227;SDS011;54139;42.616;23.748;2023-05-10T23:04:30;4.90;;;4.50;;
67227;SDS011;54139;42.616;23.748;2023-05-10T23:06:55;6.05;;;4.22;;
67227;SDS011;54139;42.616;23.748;2023-05-10T23:09:22;7.40;;;4.70;;
67227;SDS011;54139;42.616;23.748;2023-05-10T23:11:55;4.95;;;4.07;;
67227;SDS011;54139;42.616;23.748;2023-05-10T23:14:21;4.30;;;4.00;;
67227;SDS011;54139;42.616;23.748;2023-05-10T23:16:48;5.00;;;4.20;;
67227;SDS011;54139;42.616;23.748;2023-05-10T23:19:15;5.72;;;3.97;;
67227;SDS011;54139;42.616;23.748;2023-05-10T23:21:41;6.10;;;4.05;;
67227;SDS011;54139;42.616;23.748;2023-05-10T23:24:06;8.20;;;4.43;;
67227;SDS011;54139;42.616;23.748;2023-05-10T23:26:32;3.95;;;3.65;;
67227;SDS011;54139;42.616;23.748;2023-05-10T23:28:59;4.63;;;3.97;;
67227;SDS011;54139;42.616;23.748;2023-05-10T23:31:24;5.22;;;4.10;;
67227;SDS011;54139;42.616;23.748;2023-05-10T23:33:50;5.10;;;4.60;;
67227;SDS011;54139;42.616;23.748;2023-05-10T23:36:15;4.53;;;4.13;;
67227;SDS011;54139;42.616;23.748;2023-05-10T23:38:40;5.28;;;4.93;;
67227;SDS011;54139;42.616;23.748;2023-05-10T23:41:05;5.45;;;4.95;;
67227;SDS011;54139;42.616;23.748;2023-05-10T23:43:31;4.40;;;3.83;;
67227;SDS011;54139;42.616;23.748;2023-05-10T23:45:56;4.50;;;4.10;;
67227;SDS011;54139;42.616;23.748;2023-05-10T23:48:22;6.50;;;4.30;;
67227;SDS011;54139;42.616;23.748;2023-05-10T23:50:47;4.10;;;3.70;;
67227;SDS011;54139;42.616;23.748;2023-05-10T23:53:13;4.38;;;3.92;;
67227;SDS011;54139;42.616;23.748;2023-05-10T23:55:38;4.47;;;4.07;;
67227;SDS011;54139;42.616;23.748;2023-05-10T23:58:03;4.32;;;3.92;;
